Time;durP1;ratioP1;P1;durP2;ratioP2;P2;SDS_P1;SDS_P2;PMS_P1;PMS_P2;Temp;Humidity;BMP_temperature;BMP_pressure;BME280_temperature;BME280_humidity;BME280_pressure;Samples;Min_cycle;Max_cycle;Signal;HPM_P1;HPM_P2
2022/03/22 00:01:09;;;;;;;21.03;13.87;;;8.00;1.00;;;;;;5114840;28;20785;-69
2022/03/22 00:03:35;;;;;;;16.80;13.33;;;7.90;1.00;;;;;;5114381;28;20960;-68
2022/03/22 00:06:03;;;;;;;19.17;12.67;;;7.90;1.00;;;;;;5114807;28;20805;-69
2022/03/22 00:08:30;;;;;;;18.17;12.83;;;7.90;1.00;;;;;;5114750;28;20459;-69
2022/03/22 00:10:57;;;;;;;19.97;12.13;;;7.90;1.00;;;;;;5114591;28;20487;-69
2022/03/22 00:13:24;;;;;;;16.50;12.00;;;7.80;1.00;;;;;;5114385;28;20942;-68
2022/03/22 00:15:55;;;;;;;17.57;12.40;;;7.90;1.00;;;;;;5114447;28;20471;-69
2022/03/22 00:18:24;;;;;;;16.77;12.30;;;7.90;1.00;;;;;;5114588;28;20447;-69
2022/03/22 00:20:50;;;;;;;17.43;13.00;;;7.80;1.00;;;;;;5114646;28;20456;-69
2022/03/22 00:23:18;;;;;;;15.27;12.03;;;7.80;1.00;;;;;;5114511;28;20456;-69
2022/03/22 00:25:45;;;;;;;18.63;11.63;;;7.80;1.00;;;;;;5114703;28;21081;-69
2022/03/22 00:28:12;;;;;;;25.40;13.00;;;7.80;1.00;;;;;;5114420;28;21000;-69
2022/03/22 00:30:40;;;;;;;18.27;12.63;;;7.70;1.00;;;;;;5114114;28;20965;-69
2022/03/22 00:33:09;;;;;;;16.63;12.57;;;7.70;1.00;;;;;;5114674;28;20460;-69
2022/03/22 00:35:38;;;;;;;19.23;12.07;;;7.70;1.00;;;;;;5114285;28;20476;-69
2022/03/22 00:38:08;;;;;;;19.10;13.10;;;7.70;1.00;;;;;;5114440;28;20457;-68
2022/03/22 00:40:35;;;;;;;18.23;12.30;;;7.70;1.00;;;;;;5114497;28;20546;-68
2022/03/22 00:43:03;;;;;;;20.23;12.90;;;7.60;1.00;;;;;;5114079;28;20929;-68
2022/03/22 00:45:32;;;;;;;17.90;12.80;;;7.60;1.00;;;;;;5114621;28;20456;-68
2022/03/22 00:47:59;;;;;;;16.63;12.30;;;7.60;1.00;;;;;;5115299;28;20738;-67
2022/03/22 00:50:28;;;;;;;14.30;11.60;;;7.60;1.00;;;;;;5114743;28;20464;-69
2022/03/22 00:52:57;;;;;;;17.43;12.20;;;7.60;1.00;;;;;;5114099;28;20483;-67
2022/03/22 00:55:27;;;;;;;20.83;12.33;;;7.50;1.00;;;;;;5114314;28;20460;-69
2022/03/22 00:57:55;;;;;;;15.13;12.50;;;7.50;1.00;;;;;;5114160;28;20456;-69
2022/03/22 01:00:24;;;;;;;20.87;12.87;;;7.50;1.00;;;;;;5114428;28;20456;-68
2022/03/22 01:02:53;;;;;;;17.60;11.97;;;7.50;1.00;;;;;;5114546;28;20898;-69
2022/03/22 01:05:21;;;;;;;16.50;12.13;;;7.50;1.00;;;;;;5114330;28;20468;-69
2022/03/22 01:07:50;;;;;;;17.07;11.87;;;7.50;1.00;;;;;;5116425;28;20463;-69
2022/03/22 01:10:20;;;;;;;19.03;12.90;;;7.40;1.00;;;;;;5117746;28;20456;-69
2022/03/22 01:12:48;;;;;;;17.63;11.87;;;7.40;1.00;;;;;;5118081;28;20460;-69
2022/03/22 01:15:16;;;;;;;15.87;12.03;;;7.30;1.00;;;;;;5117964;28;20460;-69
2022/03/22 01:17:44;;;;;;;19.70;12.73;;;7.30;1.00;;;;;;5117779;28;20480;-69
2022/03/22 01:20:12;;;;;;;19.40;12.93;;;7.30;1.00;;;;;;5118409;28;20452;-69
2022/03/22 01:22:41;;;;;;;16.77;12.93;;;7.30;1.00;;;;;;5117747;28;20551;-68
2022/03/22 01:25:09;;;;;;;19.40;13.00;;;7.20;1.00;;;;;;5117750;28;20918;-68
2022/03/22 01:27:37;;;;;;;16.87;12.50;;;7.20;1.00;;;;;;5117569;28;20448;-69
2022/03/22 01:30:07;;;;;;;18.03;12.57;;;7.20;1.00;;;;;;5117433;28;20453;-69
2022/03/22 01:32:34;;;;;;;19.77;12.30;;;7.10;1.00;;;;;;5117519;28;20830;-69
2022/03/22 01:35:01;;;;;;;19.10;12.50;;;7.10;1.00;;;;;;5117518;28;20503;-69
2022/03/22 01:37:28;;;;;;;16.23;12.53;;;7.10;1.00;;;;;;5117000;28;20973;-70
2022/03/22 01:39:54;;;;;;;17.57;11.93;;;7.00;1.00;;;;;;5116959;28;20468;-69
2022/03/22 01:42:21;;;;;;;17.43;12.87;;;7.00;1.00;;;;;;5117307;28;20517;-69
2022/03/22 01:44:49;;;;;;;16.60;12.47;;;7.00;1.00;;;;;;5117055;28;20517;-69
2022/03/22 01:47:18;;;;;;;17.50;12.20;;;6.90;1.00;;;;;;5117330;28;20468;-69
2022/03/22 01:49:45;;;;;;;15.47;11.77;;;6.90;1.00;;;;;;5117154;28;20944;-69
2022/03/22 01:52:14;;;;;;;16.93;11.80;;;6.90;1.00;;;;;;5116852;28;20492;-69
2022/03/22 01:54:41;;;;;;;18.07;13.43;;;6.90;1.00;;;;;;5117025;28;20452;-69
2022/03/22 01:57:09;;;;;;;17.17;12.07;;;6.80;1.00;;;;;;5117106;28;20480;-69
2022/03/22 01:59:36;;;;;;;18.90;13.50;;;6.80;1.00;;;;;;5117237;28;20463;-69
2022/03/22 02:07:35;;;;;;;27.23;12.90;;;6.70;1.00;;;;;;5116736;28;20416;-70
2022/03/22 02:10:02;;;;;;;14.03;11.87;;;6.60;1.00;;;;;;5116890;28;20453;-69
2022/03/22 02:12:28;;;;;;;20.40;12.60;;;6.60;1.00;;;;;;5116519;28;20468;-70
2022/03/22 02:14:55;;;;;;;17.90;12.60;;;6.60;1.00;;;;;;5116421;28;20938;-69
2022/03/22 02:17:23;;;;;;;19.53;13.40;;;6.50;1.00;;;;;;5116299;28;20472;-70
2022/03/22 02:19:52;;;;;;;17.47;11.93;;;6.50;1.00;;;;;;5116447;28;20896;-69
2022/03/22 02:22:21;;;;;;;18.73;12.90;;;6.50;1.00;;;;;;5117295;28;20499;-69
2022/03/22 02:24:49;;;;;;;22.93;13.30;;;6.40;1.00;;;;;;5116441;28;20831;-69
2022/03/22 02:27:15;;;;;;;17.20;13.20;;;6.40;1.00;;;;;;5116067;28;20923;-69
2022/03/22 02:29:43;;;;;;;21.70;12.80;;;6.40;1.00;;;;;;5116557;28;20791;-69
2022/03/22 02:32:10;;;;;;;15.50;12.90;;;6.30;1.00;;;;;;5118002;28;20452;-69
2022/03/22 02:34:39;;;;;;;18.87;11.37;;;6.30;1.00;;;;;;5118094;28;20467;-69
2022/03/22 02:37:06;;;;;;;18.47;12.93;;;6.30;1.00;;;;;;5116406;28;20869;-69
2022/03/22 02:39:34;;;;;;;21.80;13.20;;;6.20;1.00;;;;;;5116365;28;20843;-69
2022/03/22 02:42:02;;;;;;;18.97;12.20;;;6.20;1.00;;;;;;5116105;28;20457;-69
2022/03/22 02:44:29;;;;;;;19.90;13.63;;;6.20;1.00;;;;;;5116257;28;20452;-69
2022/03/22 02:46:55;;;;;;;21.63;13.07;;;6.20;1.00;;;;;;5115854;28;20927;-68
2022/03/22 02:49:22;;;;;;;18.97;12.97;;;6.10;1.00;;;;;;5116010;28;20467;-68
2022/03/22 02:51:49;;;;;;;19.67;13.37;;;6.10;1.00;;;;;;5115671;28;20858;-68
2022/03/22 02:54:18;;;;;;;18.90;12.73;;;6.10;1.00;;;;;;5116722;28;20467;-68
2022/03/22 02:56:45;;;;;;;17.77;12.57;;;6.10;1.00;;;;;;5116007;28;20980;-69
2022/03/22 02:59:13;;;;;;;18.07;13.67;;;6.10;1.00;;;;;;5117401;28;20545;-69
2022/03/22 03:01:40;;;;;;;20.07;12.80;;;6.00;1.00;;;;;;5120965;28;20464;-69
2022/03/22 03:04:06;;;;;;;19.90;13.63;;;6.00;1.00;;;;;;5121332;28;20463;-69
2022/03/22 03:06:33;;;;;;;20.90;13.37;;;6.00;1.00;;;;;;5118243;28;20448;-69
2022/03/22 03:09:00;;;;;;;17.97;14.13;;;6.00;1.00;;;;;;5116203;28;20914;-69
2022/03/22 03:11:27;;;;;;;20.00;12.50;;;6.00;1.00;;;;;;5115884;28;20457;-69
2022/03/22 03:16:40;;;;;;;21.83;13.77;;;5.90;1.00;;;;;;5116216;28;20509;-70
2022/03/22 03:19:07;;;;;;;18.10;12.53;;;5.90;1.00;;;;;;5115820;28;20519;-69
2022/03/22 03:21:34;;;;;;;18.80;12.63;;;5.90;1.00;;;;;;5116142;28;20517;-69
2022/03/22 03:24:01;;;;;;;18.30;12.60;;;5.90;1.00;;;;;;5116078;28;20497;-69
2022/03/22 03:26:28;;;;;;;17.50;12.77;;;5.90;1.00;;;;;;5115952;28;20463;-69
2022/03/22 03:28:55;;;;;;;19.33;13.43;;;5.80;1.00;;;;;;5115576;28;20452;-69
2022/03/22 03:31:21;;;;;;;16.90;13.37;;;5.80;1.00;;;;;;5115221;28;20470;-69
2022/03/22 03:33:49;;;;;;;18.13;12.20;;;5.80;1.00;;;;;;5115670;28;20460;-74
2022/03/22 03:36:16;;;;;;;19.00;13.20;;;5.80;1.00;;;;;;5115644;28;20887;-68
2022/03/22 03:38:43;;;;;;;18.50;12.00;;;5.80;1.00;;;;;;5115408;28;20460;-69
2022/03/22 03:43:54;;;;;;;14.90;12.30;;;5.70;1.00;;;;;;5115788;28;20513;-68
2022/03/22 03:49:07;;;;;;;21.67;14.33;;;5.60;1.00;;;;;;5115701;28;20763;-68
2022/03/22 03:51:34;;;;;;;19.77;13.37;;;5.60;1.00;;;;;;5115734;28;20596;-68
2022/03/22 03:54:01;;;;;;;15.57;12.73;;;5.50;1.00;;;;;;5115279;28;20811;-71
2022/03/22 03:56:28;;;;;;;16.63;12.80;;;5.40;1.00;;;;;;5115200;28;20464;-72
2022/03/22 03:58:56;;;;;;;16.90;13.00;;;5.40;1.00;;;;;;5115190;28;20452;-72
2022/03/22 04:01:23;;;;;;;21.23;13.10;;;5.40;1.00;;;;;;5115092;28;20491;-72
2022/03/22 04:03:50;;;;;;;17.97;12.17;;;5.30;1.00;;;;;;5115003;28;20789;-71
2022/03/22 04:06:19;;;;;;;17.57;12.20;;;5.30;1.00;;;;;;5114762;28;20791;-72
2022/03/22 04:08:46;;;;;;;21.97;13.37;;;5.30;1.00;;;;;;5114821;28;20456;-71
2022/03/22 04:11:12;;;;;;;17.93;13.77;;;5.30;1.00;;;;;;5114777;28;20464;-72
2022/03/22 04:13:40;;;;;;;18.20;13.03;;;5.30;1.00;;;;;;5114456;28;20455;-69
2022/03/22 04:16:06;;;;;;;20.37;12.97;;;5.30;1.00;;;;;;5115403;28;20456;-69
2022/03/22 04:18:34;;;;;;;19.23;14.50;;;5.20;1.00;;;;;;5115231;28;20479;-69
2022/03/22 04:21:02;;;;;;;17.13;12.70;;;5.20;1.00;;;;;;5115049;28;20463;-69
2022/03/22 04:23:30;;;;;;;19.27;12.60;;;5.20;1.00;;;;;;5115304;28;20464;-70
2022/03/22 04:25:57;;;;;;;17.67;12.70;;;5.20;1.00;;;;;;5115662;28;20460;-68
2022/03/22 04:33:52;;;;;;;21.63;12.90;;;5.20;1.00;;;;;;5116026;28;20435;-70
2022/03/22 04:36:18;;;;;;;16.70;13.53;;;5.20;1.00;;;;;;5115711;28;20453;-70
2022/03/22 04:38:46;;;;;;;16.57;13.37;;;5.20;1.00;;;;;;5115557;28;20480;-70
2022/03/22 04:41:13;;;;;;;18.00;12.30;;;5.20;1.00;;;;;;5116645;28;20521;-71
2022/03/22 04:43:40;;;;;;;16.40;13.00;;;5.20;1.00;;;;;;5119064;28;20459;-71
2022/03/22 04:46:08;;;;;;;20.30;13.00;;;5.20;1.00;;;;;;5119086;28;20911;-71
2022/03/22 04:48:36;;;;;;;21.27;13.03;;;5.20;1.00;;;;;;5119658;28;20445;-71
2022/03/22 04:56:46;;;;;;;17.43;13.00;;;5.10;1.00;;;;;;5119046;28;20484;-71
2022/03/22 04:59:13;;;;;;;19.53;14.00;;;5.10;1.00;;;;;;5118556;28;20531;-71
2022/03/22 05:01:40;;;;;;;20.83;12.73;;;5.10;1.00;;;;;;5118061;28;20463;-71
2022/03/22 05:04:07;;;;;;;18.73;13.53;;;5.00;1.00;;;;;;5118254;28;20819;-71
2022/03/22 05:06:35;;;;;;;18.20;14.00;;;5.00;1.00;;;;;;5118046;28;20452;-70
2022/03/22 05:09:02;;;;;;;18.20;12.90;;;5.00;1.00;;;;;;5118748;28;20607;-72
2022/03/22 05:11:31;;;;;;;23.13;14.13;;;5.00;1.00;;;;;;5119941;28;20526;-72
2022/03/22 05:13:58;;;;;;;18.87;12.97;;;4.90;1.00;;;;;;5118757;28;20910;-69
2022/03/22 05:16:25;;;;;;;19.43;13.63;;;4.90;1.00;;;;;;5118274;28;20463;-69
2022/03/22 05:18:51;;;;;;;20.07;13.70;;;4.90;1.00;;;;;;5117990;28;20472;-69
2022/03/22 05:21:18;;;;;;;19.47;13.73;;;4.90;1.00;;;;;;5118512;28;20820;-69
2022/03/22 05:23:46;;;;;;;19.83;14.07;;;4.90;1.00;;;;;;5118147;28;20452;-69
2022/03/22 05:26:13;;;;;;;18.97;13.70;;;4.90;1.00;;;;;;5118017;28;20910;-68
2022/03/22 05:28:42;;;;;;;16.20;13.20;;;4.90;1.00;;;;;;5118393;28;20547;-69
2022/03/22 05:31:11;;;;;;;17.97;13.80;;;4.90;1.00;;;;;;5117971;28;20502;-69
2022/03/22 05:33:38;;;;;;;24.77;14.60;;;4.90;1.00;;;;;;5118173;28;20453;-69
2022/03/22 05:36:06;;;;;;;20.27;14.37;;;4.90;1.00;;;;;;5118545;28;20461;-68
2022/03/22 05:38:32;;;;;;;21.97;13.60;;;4.90;1.00;;;;;;5118563;28;20480;-69
2022/03/22 05:41:02;;;;;;;22.73;14.37;;;4.90;1.00;;;;;;5117874;28;20463;-69
2022/03/22 05:43:29;;;;;;;20.13;14.17;;;4.80;1.00;;;;;;5117912;28;20523;-68
2022/03/22 05:45:57;;;;;;;20.53;14.30;;;4.90;1.00;;;;;;5118134;28;20478;-68
2022/03/22 05:48:24;;;;;;;17.73;14.10;;;4.90;1.00;;;;;;5118047;28;20448;-69
2022/03/22 05:50:52;;;;;;;18.10;13.90;;;4.90;1.00;;;;;;5118145;28;20943;-68
2022/03/22 05:53:19;;;;;;;20.43;13.23;;;4.90;1.00;;;;;;5120658;28;20476;-68
2022/03/22 05:55:45;;;;;;;24.90;14.50;;;4.90;1.00;;;;;;5118967;28;20470;-70
2022/03/22 05:58:12;;;;;;;19.47;14.23;;;4.90;1.00;;;;;;5117709;28;20503;-70
2022/03/22 06:00:39;;;;;;;22.10;15.50;;;4.90;1.00;;;;;;5118047;28;20456;-70
2022/03/22 06:03:07;;;;;;;22.47;15.40;;;5.00;1.00;;;;;;5118374;28;20457;-70
2022/03/22 06:05:34;;;;;;;25.17;15.13;;;5.00;1.00;;;;;;5118410;28;20452;-71
2022/03/22 06:08:01;;;;;;;19.60;14.93;;;5.00;1.00;;;;;;5117756;28;20448;-72
2022/03/22 06:10:28;;;;;;;19.00;13.43;;;5.00;1.00;;;;;;5117310;28;20495;-72
2022/03/22 06:12:56;;;;;;;20.53;14.00;;;5.00;1.00;;;;;;5116809;28;20472;-71
2022/03/22 06:15:24;;;;;;;20.03;14.23;;;5.10;1.00;;;;;;5116465;28;20463;-71
2022/03/22 06:17:52;;;;;;;19.27;14.60;;;5.10;1.00;;;;;;5116242;28;20973;-72
2022/03/22 06:20:23;;;;;;;18.33;13.63;;;5.10;1.00;;;;;;5116721;28;20464;-71
2022/03/22 06:22:52;;;;;;;21.43;14.83;;;5.20;1.00;;;;;;5116921;28;20944;-71
2022/03/22 06:25:22;;;;;;;20.90;14.37;;;5.20;1.00;;;;;;5116956;28;20934;-71
2022/03/22 06:27:50;;;;;;;18.97;14.13;;;5.20;1.00;;;;;;5118806;28;20485;-71
2022/03/22 06:30:20;;;;;;;20.87;13.77;;;5.30;1.00;;;;;;5118970;28;20456;-71
2022/03/22 06:32:49;;;;;;;20.17;13.83;;;5.30;1.00;;;;;;5120211;28;20445;-71
2022/03/22 06:35:17;;;;;;;20.77;15.70;;;5.40;1.00;;;;;;5117465;28;20464;-71
2022/03/22 06:37:47;;;;;;;23.47;15.40;;;5.40;1.00;;;;;;5116842;28;20571;-69
2022/03/22 06:40:15;;;;;;;19.87;14.60;;;5.40;1.00;;;;;;5116736;28;20524;-69
2022/03/22 06:42:42;;;;;;;27.00;14.83;;;5.50;1.00;;;;;;5116477;28;20463;-70
2022/03/22 06:45:10;;;;;;;21.97;15.50;;;5.50;1.00;;;;;;5116541;28;20456;-70
2022/03/22 06:47:38;;;;;;;23.93;15.33;;;5.60;1.00;;;;;;5116205;28;20521;-70
2022/03/22 06:50:06;;;;;;;22.67;15.60;;;5.60;1.00;;;;;;5115924;28;20448;-70
2022/03/22 06:52:33;;;;;;;19.57;14.47;;;5.60;1.00;;;;;;5115767;28;20772;-70
2022/03/22 06:55:02;;;;;;;20.33;14.97;;;5.70;1.00;;;;;;5115547;28;20451;-71
2022/03/22 06:57:28;;;;;;;20.13;15.03;;;5.80;1.00;;;;;;5115769;28;20452;-71
2022/03/22 06:59:56;;;;;;;20.60;14.00;;;5.90;1.00;;;;;;5115548;28;20760;-71
2022/03/22 07:02:24;;;;;;;20.77;15.73;;;5.90;1.00;;;;;;5115234;28;20460;-71
2022/03/22 07:04:51;;;;;;;20.10;14.43;;;5.90;1.00;;;;;;5114836;28;20471;-70
2022/03/22 07:07:18;;;;;;;23.93;14.40;;;6.10;1.00;;;;;;5115506;28;20464;-71
2022/03/22 07:09:46;;;;;;;27.37;14.83;;;6.10;1.00;;;;;;5115880;28;20530;-72
2022/03/22 07:12:14;;;;;;;22.77;15.33;;;6.20;1.00;;;;;;5115724;28;20456;-71
2022/03/22 07:14:41;;;;;;;19.80;14.20;;;6.30;1.00;;;;;;5115697;28;20463;-72
2022/03/22 07:17:08;;;;;;;22.37;15.70;;;6.40;1.00;;;;;;5115226;28;20490;-71
2022/03/22 07:19:35;;;;;;;20.90;15.17;;;6.40;1.00;;;;;;5115516;28;20476;-70
2022/03/22 07:22:03;;;;;;;18.73;14.30;;;6.40;1.00;;;;;;5115131;28;20898;-71
2022/03/22 07:24:30;;;;;;;25.83;14.40;;;6.50;1.00;;;;;;5115300;28;20521;-71
2022/03/22 07:26:57;;;;;;;19.63;14.97;;;6.50;1.00;;;;;;5115464;28;20452;-71
2022/03/22 07:29:25;;;;;;;20.43;15.70;;;6.60;1.00;;;;;;5117199;28;20459;-71
2022/03/22 07:31:52;;;;;;;26.53;15.23;;;6.70;1.00;;;;;;5122189;28;20463;-71
2022/03/22 07:34:20;;;;;;;25.67;16.10;;;6.80;1.00;;;;;;5123273;28;20527;-71
2022/03/22 07:36:51;;;;;;;22.20;15.27;;;6.90;1.00;;;;;;5118192;28;20556;-71
2022/03/22 07:39:17;;;;;;;24.90;15.20;;;6.90;1.00;;;;;;5115650;28;20822;-70
2022/03/22 07:41:44;;;;;;;21.97;14.83;;;7.00;1.00;;;;;;5115378;28;20467;-71
2022/03/22 07:44:12;;;;;;;21.53;14.60;;;7.10;1.00;;;;;;5114914;28;20801;-70
2022/03/22 07:46:40;;;;;;;29.00;15.63;;;7.20;1.00;;;;;;5115651;28;20452;-71
2022/03/22 07:54:36;;;;;;;23.57;16.43;;;7.20;1.00;;;;;;5114925;28;20890;-70
2022/03/22 07:57:04;;;;;;;24.80;15.10;;;7.30;1.00;;;;;;5114518;28;20493;-71
2022/03/22 07:59:31;;;;;;;21.60;14.70;;;7.40;1.00;;;;;;5115014;28;20472;-71
2022/03/22 08:02:00;;;;;;;22.00;16.27;;;7.40;1.00;;;;;;5114735;28;20543;-70
2022/03/22 08:04:27;;;;;;;19.73;14.80;;;7.60;1.00;;;;;;5114917;28;20470;-70
2022/03/22 08:06:53;;;;;;;28.17;14.63;;;7.60;1.00;;;;;;5114768;28;20452;-69
2022/03/22 08:09:20;;;;;;;23.70;14.33;;;7.70;1.00;;;;;;5114992;28;20959;-68
2022/03/22 08:11:48;;;;;;;22.63;15.47;;;7.80;1.00;;;;;;5114799;28;20464;-69
2022/03/22 08:14:14;;;;;;;22.97;15.03;;;7.90;1.00;;;;;;5114919;28;20968;-69
2022/03/22 08:16:42;;;;;;;21.60;13.07;;;8.10;1.00;;;;;;5117461;28;20463;-68
2022/03/22 08:19:17;;;;;;;20.00;14.13;;;8.20;1.00;;;;;;5119386;28;20498;-69
2022/03/22 08:21:45;;;;;;;19.40;14.90;;;8.30;1.00;;;;;;5119649;28;20445;-73
2022/03/22 08:24:12;;;;;;;21.13;15.87;;;8.30;1.00;;;;;;5119931;28;20486;-71
2022/03/22 08:26:39;;;;;;;18.53;15.60;;;8.40;1.00;;;;;;5118880;28;20463;-70
2022/03/22 08:29:07;;;;;;;18.50;14.00;;;8.50;1.00;;;;;;5118216;28;20551;-70
2022/03/22 08:31:35;;;;;;;20.47;13.60;;;8.70;1.00;;;;;;5118819;28;20495;-70
2022/03/22 08:34:02;;;;;;;21.60;14.07;;;8.80;1.00;;;;;;5118992;28;20454;-69
2022/03/22 08:36:30;;;;;;;18.40;13.73;;;8.90;1.00;;;;;;5117976;28;21008;-69
2022/03/22 08:38:58;;;;;;;15.57;12.70;;;9.00;1.00;;;;;;5118068;28;20511;-70
2022/03/22 08:41:24;;;;;;;19.27;13.30;;;9.00;1.00;;;;;;5118135;28;20453;-71
2022/03/22 08:43:52;;;;;;;18.90;13.30;;;9.20;1.00;;;;;;5117714;28;20474;-71
2022/03/22 08:46:20;;;;;;;23.50;13.73;;;9.30;1.00;;;;;;5118274;28;20452;-69
2022/03/22 08:48:47;;;;;;;17.87;12.97;;;9.40;1.00;;;;;;5118036;28;20504;-69
2022/03/22 08:51:16;;;;;;;19.00;14.40;;;9.50;1.00;;;;;;5117806;28;20467;-70
2022/03/22 08:53:44;;;;;;;17.10;12.30;;;9.60;1.00;;;;;;5117762;28;20866;-69
2022/03/22 08:56:11;;;;;;;17.43;13.50;;;9.70;1.00;;;;;;5118156;28;20456;-70
2022/03/22 08:58:38;;;;;;;17.60;13.33;;;9.70;1.00;;;;;;5117640;28;20567;-69
2022/03/22 09:01:05;;;;;;;17.77;12.67;;;9.80;1.00;;;;;;5117897;28;20448;-71
2022/03/22 09:03:32;;;;;;;14.30;11.93;;;10.00;1.00;;;;;;5118510;28;20555;-70
2022/03/22 09:06:12;;;;;;;16.00;12.27;;;10.10;1.00;;;;;;5117952;28;20460;-71
2022/03/22 09:08:41;;;;;;;21.20;12.47;;;10.20;1.00;;;;;;5117396;28;20440;-70
2022/03/22 09:11:10;;;;;;;15.17;10.37;;;10.30;1.00;;;;;;5117831;28;20559;-69
2022/03/22 09:13:38;;;;;;;14.53;11.50;;;10.40;1.00;;;;;;5117837;28;20453;-71
2022/03/22 09:16:12;;;;;;;16.90;12.03;;;10.50;1.00;;;;;;5117407;28;20467;-69
2022/03/22 09:18:39;;;;;;;13.63;11.30;;;10.60;1.00;;;;;;5117348;28;20479;-71
2022/03/22 09:21:05;;;;;;;17.90;12.90;;;10.70;1.00;;;;;;5117600;28;20517;-71
2022/03/22 09:23:34;;;;;;;19.10;11.70;;;10.80;1.00;;;;;;5121563;28;20448;-70
2022/03/22 09:26:02;;;;;;;20.83;11.30;;;10.80;1.00;;;;;;5118758;28;20536;-70
2022/03/22 09:28:30;;;;;;;18.50;11.30;;;10.80;1.00;;;;;;5116079;28;20480;-71
2022/03/22 09:31:00;;;;;;;20.60;11.90;;;10.90;1.00;;;;;;5117289;28;20452;-71
2022/03/22 09:33:26;;;;;;;13.13;10.60;;;11.00;1.00;;;;;;5116830;28;20517;-71
2022/03/22 09:35:57;;;;;;;14.47;10.50;;;11.20;1.00;;;;;;5117267;28;20456;-70
2022/03/22 09:38:24;;;;;;;16.83;12.30;;;11.30;1.00;;;;;;5118826;28;20486;-70
2022/03/22 09:40:52;;;;;;;16.63;12.43;;;11.30;1.00;;;;;;5117256;28;20452;-71
2022/03/22 09:43:22;;;;;;;15.20;12.03;;;11.40;1.00;;;;;;5117292;28;20459;-70
2022/03/22 09:45:53;;;;;;;14.83;10.53;;;11.50;1.00;;;;;;5117194;28;20463;-70
2022/03/22 09:48:20;;;;;;;13.13;10.40;;;11.60;1.00;;;;;;5117344;28;20440;-70
2022/03/22 09:53:31;;;;;;;12.97;10.07;;;11.70;1.00;;;;;;5116761;28;20586;-70
2022/03/22 09:55:58;;;;;;;18.43;12.77;;;11.80;1.00;;;;;;5116601;28;20476;-70
2022/03/22 09:58:24;;;;;;;17.17;11.33;;;11.90;1.00;;;;;;5116579;28;20938;-69
2022/03/22 10:00:52;;;;;;;14.30;11.60;;;11.90;1.00;;;;;;5116886;28;20494;-71
2022/03/22 10:03:20;;;;;;;14.60;11.50;;;12.00;1.00;;;;;;5116143;28;20498;-70
2022/03/22 10:05:58;;;;;;;16.50;11.10;;;12.10;1.00;;;;;;5116513;28;20463;-69
2022/03/22 10:08:25;;;;;;;14.10;10.77;;;12.30;1.00;;;;;;5116519;28;20825;-70
2022/03/22 10:10:56;;;;;;;16.37;11.50;;;12.30;1.00;;;;;;5116587;28;20456;-70
2022/03/22 10:13:22;;;;;;;13.73;11.27;;;12.40;1.00;;;;;;5116645;28;20456;-70
2022/03/22 10:15:49;;;;;;;15.17;10.83;;;12.40;1.00;;;;;;5116314;28;20486;-70
2022/03/22 10:18:24;;;;;;;12.23;10.93;;;12.40;1.00;;;;;;5116432;28;20907;-70
2022/03/22 10:20:59;;;;;;;16.20;10.50;;;12.50;1.00;;;;;;5116484;28;20440;-70
2022/03/22 10:23:26;;;;;;;15.70;11.10;;;12.60;1.00;;;;;;5115995;28;20468;-70
2022/03/22 10:26:03;;;;;;;13.70;10.60;;;12.70;1.00;;;;;;5116283;28;20460;-70
2022/03/22 10:28:30;;;;;;;12.93;10.67;;;12.80;1.00;;;;;;5116770;28;20536;-69
2022/03/22 10:30:57;;;;;;;17.43;10.60;;;12.80;1.00;;;;;;5116046;28;20452;-70
2022/03/22 10:33:25;;;;;;;18.10;11.73;;;12.80;1.00;;;;;;5115966;28;20490;-71
2022/03/22 10:35:52;;;;;;;12.27;10.60;;;12.80;1.00;;;;;;5116082;28;20452;-69
2022/03/22 10:38:19;;;;;;;16.63;12.23;;;12.90;1.00;;;;;;5116014;28;20456;-70
2022/03/22 10:40:49;;;;;;;12.33;10.20;;;13.00;1.00;;;;;;5115441;28;20463;-70
2022/03/22 10:43:18;;;;;;;13.97;9.83;;;13.10;1.00;;;;;;5115928;28;20544;-70
2022/03/22 10:45:46;;;;;;;14.07;10.00;;;13.20;1.00;;;;;;5115650;28;20465;-70
2022/03/22 10:48:16;;;;;;;14.70;9.57;;;13.40;1.00;;;;;;5116111;28;20460;-70
2022/03/22 10:50:46;;;;;;;14.27;10.37;;;13.50;1.00;;;;;;5116209;28;20448;-70
2022/03/22 10:53:16;;;;;;;13.53;9.83;;;13.60;1.00;;;;;;5115956;28;20507;-71
2022/03/22 10:55:44;;;;;;;11.40;10.00;;;13.80;1.00;;;;;;5116215;28;20472;-69
2022/03/22 10:58:13;;;;;;;18.37;10.63;;;13.80;1.00;;;;;;5115839;28;20564;-70
2022/03/22 11:00:53;;;;;;;15.07;10.17;;;13.90;1.00;;;;;;5117587;28;20480;-73
2022/03/22 11:03:21;;;;;;;15.70;10.93;;;13.90;1.00;;;;;;5116129;28;20444;-70
2022/03/22 11:05:51;;;;;;;13.53;9.63;;;14.00;1.00;;;;;;5116173;28;20452;-71
2022/03/22 11:08:22;;;;;;;13.60;10.53;;;14.10;1.00;;;;;;5115534;28;20460;-70
2022/03/22 11:10:51;;;;;;;12.00;9.87;;;14.20;1.00;;;;;;5114877;28;20436;-70
2022/03/22 11:13:18;;;;;;;15.10;10.13;;;14.30;1.00;;;;;;5115210;28;20463;-71
2022/03/22 11:15:47;;;;;;;18.37;14.13;;;14.50;1.00;;;;;;5114605;28;20456;-71
2022/03/22 11:18:15;;;;;;;11.07;9.43;;;14.70;1.00;;;;;;5115210;28;20461;-71
2022/03/22 11:20:51;;;;;;;12.23;9.37;;;14.80;1.00;;;;;;5115565;28;20994;-71
2022/03/22 11:23:20;;;;;;;18.87;10.10;;;14.90;1.00;;;;;;5116380;28;20555;-71
2022/03/22 11:25:47;;;;;;;17.77;9.70;;;15.00;1.00;;;;;;5114850;28;20467;-72
2022/03/22 11:28:17;;;;;;;12.73;10.27;;;15.10;1.00;;;;;;5115345;28;20468;-71
2022/03/22 11:30:44;;;;;;;13.60;9.70;;;15.10;1.00;;;;;;5115656;28;20502;-71
2022/03/22 11:35:59;;;;;;;11.40;8.70;;;15.40;1.00;;;;;;5115056;28;20478;-71
2022/03/22 11:38:44;;;;;;;12.30;9.00;;;16.10;1.00;;;;;;5115172;28;20457;-71
2022/03/22 11:44:15;;;;;;;12.70;8.50;;;17.10;1.00;;;;;;5081271;28;20439;-72
2022/03/22 11:46:43;;;;;;;9.87;8.73;;;17.70;1.00;;;;;;5114870;28;20668;-71
2022/03/22 11:49:15;;;;;;;9.20;8.30;;;18.50;1.00;;;;;;5114499;28;20463;-70
2022/03/22 11:51:52;;;;;;;10.87;8.67;;;18.80;1.00;;;;;;5113985;28;20456;-71
2022/03/22 11:54:20;;;;;;;16.87;9.57;;;18.90;1.00;;;;;;5115015;28;20476;-71
2022/03/22 11:56:48;;;;;;;10.10;8.50;;;18.90;1.00;;;;;;5115177;28;20822;-72
2022/03/22 11:59:20;;;;;;;11.60;8.73;;;19.10;1.00;;;;;;5116818;28;20536;-71
2022/03/22 12:02:00;;;;;;;12.57;8.50;;;19.70;1.00;;;;;;5116761;28;20858;-71
2022/03/22 12:04:36;;;;;;;14.93;8.20;;;20.90;1.00;;;;;;5114632;28;20456;-71
2022/03/22 12:07:06;;;;;;;10.40;7.87;;;22.20;1.00;;;;;;5115355;28;20463;-72
2022/03/22 12:09:34;;;;;;;13.07;8.13;;;22.80;1.00;;;;;;5115211;28;20452;-71
2022/03/22 12:12:02;;;;;;;9.57;7.90;;;23.00;1.00;;;;;;5114697;28;20460;-73
2022/03/22 12:14:31;;;;;;;8.50;7.77;;;22.60;1.00;;;;;;5114107;28;20901;-72
2022/03/22 12:16:58;;;;;;;9.37;7.83;;;22.80;1.00;;;;;;5114722;28;20555;-71
2022/03/22 12:19:25;;;;;;;14.97;7.83;;;23.20;1.00;;;;;;5114301;28;20806;-72
2022/03/22 12:21:54;;;;;;;12.17;10.80;;;24.00;1.00;;;;;;5114834;28;20530;-71
2022/03/22 12:24:23;;;;;;;11.53;7.90;;;24.40;1.00;;;;;;5114623;28;20543;-72
2022/03/22 12:26:50;;;;;;;8.23;7.27;;;24.80;1.00;;;;;;5114261;28;20512;-70
2022/03/22 12:29:17;;;;;;;8.33;7.43;;;25.50;1.00;;;;;;5114242;28;20456;-71
2022/03/22 12:31:51;;;;;;;8.57;7.70;;;25.10;1.00;;;;;;5115714;28;20960;-72
2022/03/22 12:34:18;;;;;;;9.80;7.80;;;25.40;1.00;;;;;;5114386;28;20467;-71
2022/03/22 12:36:45;;;;;;;13.53;7.70;;;26.40;1.00;;;;;;5113986;28;20456;-70
2022/03/22 12:39:12;;;;;;;7.93;7.23;;;27.20;1.00;;;;;;5114399;28;20523;-70
2022/03/22 12:41:43;;;;;;;9.90;7.70;;;27.60;1.00;;;;;;5114046;28;20456;-70
2022/03/22 12:44:10;;;;;;;9.43;8.00;;;27.80;1.00;;;;;;5114491;28;20468;-69
2022/03/22 12:46:37;;;;;;;12.20;8.40;;;27.60;1.00;;;;;;5113885;28;20464;-69
2022/03/22 12:49:05;;;;;;;10.97;7.20;;;28.00;1.00;;;;;;5114052;28;20453;-70
2022/03/22 12:51:31;;;;;;;8.10;7.30;;;28.20;1.00;;;;;;5113987;28;20733;-70
2022/03/22 12:54:02;;;;;;;7.83;7.03;;;28.60;1.00;;;;;;5114950;28;20487;-71
2022/03/22 12:56:30;;;;;;;8.40;7.17;;;28.90;1.00;;;;;;5114785;28;20456;-71
2022/03/22 12:58:58;;;;;;;9.27;7.43;;;28.40;1.00;;;;;;5114712;28;20448;-71
2022/03/22 13:01:25;;;;;;;8.90;7.47;;;27.70;1.00;;;;;;5114168;28;20444;-70
2022/03/22 13:03:52;;;;;;;8.30;7.23;;;27.90;1.00;;;;;;5118063;28;20460;-71
2022/03/22 13:06:20;;;;;;;9.83;7.20;;;27.90;1.00;;;;;;5117997;28;20483;-72
2022/03/22 13:11:35;;;;;;;8.80;6.77;;;28.60;1.00;;;;;;5117969;28;20481;-72
2022/03/22 13:16:52;;;;;;;8.53;6.70;;;29.90;1.00;;;;;;5118745;28;20570;-73
2022/03/22 13:19:21;;;;;;;6.47;5.97;;;30.40;1.00;;;;;;5118586;28;20456;-71
2022/03/22 13:21:48;;;;;;;6.30;5.73;;;30.00;1.00;;;;;;5118778;28;20530;-72
2022/03/22 13:24:22;;;;;;;6.33;5.73;;;29.20;1.00;;;;;;5118657;28;21003;-72
2022/03/22 13:26:54;;;;;;;7.03;5.93;;;29.30;1.00;;;;;;5119253;28;20440;-71
2022/03/22 13:29:23;;;;;;;6.20;5.60;;;30.10;1.00;;;;;;5118765;28;20460;-70
2022/03/22 13:31:58;;;;;;;6.67;6.03;;;29.70;1.00;;;;;;5117940;28;20448;-71
2022/03/22 13:34:28;;;;;;;8.80;5.90;;;29.60;1.00;;;;;;5118146;28;20460;-72